createdAt,value
2017-01-04T18:33:43.574Z,6.97
2017-01-04T18:35:03.177Z,6.94
2017-01-04T18:36:20.831Z,6.93
2017-01-04T18:37:35.519Z,6.87
2017-01-04T18:38:59.819Z,6.82
2017-01-04T18:40:19.362Z,6.76
2017-01-04T18:41:40.209Z,6.66
2017-01-04T18:42:57.643Z,6.57
2017-01-04T18:44:13.211Z,6.49
2017-01-04T18:45:29.704Z,6.41
2017-01-04T18:46:43.927Z,6.32
2017-01-04T18:47:59.215Z,6.24
2017-01-04T18:49:13.387Z,6.2
2017-01-04T18:54:12.567Z,6.11
2017-01-04T18:55:27.804Z,6.13
2017-01-04T18:56:42.722Z,6.13
2017-01-04T18:57:57.374Z,6.13
2017-01-04T18:59:12.058Z,6.11
2017-01-04T19:00:27.775Z,6.09
2017-01-04T19:01:42.007Z,6.07
2017-01-04T19:02:57.277Z,6.06
2017-01-04T19:04:11.710Z,6.06
2017-01-04T19:05:26.458Z,6.03
2017-01-04T19:06:42.910Z,5.99
2017-01-04T19:07:57.894Z,5.98
2017-01-04T19:09:14.049Z,5.99
2017-01-04T19:10:29.018Z,6
2017-01-04T19:11:43.973Z,6.01
2017-01-04T19:12:59.028Z,6.03
2017-01-04T19:14:17.327Z,6.06
2017-01-04T19:15:33.029Z,6.08
2017-01-04T19:16:47.350Z,6.13
2017-01-04T19:18:03.816Z,6.17
2017-01-04T19:19:20.437Z,6.22
2017-01-04T19:20:35.777Z,6.27
2017-01-04T19:21:58.914Z,6.33
2017-01-04T19:23:14.058Z,6.36
2017-01-04T19:24:30.356Z,6.41
2017-01-04T19:25:45.414Z,6.43
2017-01-04T19:27:00.605Z,6.44
2017-01-04T19:28:15.341Z,6.44
2017-01-04T19:29:31.194Z,6.44
2017-01-04T19:30:45.514Z,6.41
2017-01-04T19:32:00.073Z,6.41
2017-01-04T19:33:15.420Z,6.43
2017-01-04T19:34:31.697Z,6.42
2017-01-04T19:35:46.453Z,6.41
2017-01-04T19:37:01.307Z,6.39
2017-01-04T19:38:15.956Z,6.35
2017-01-04T19:39:30.971Z,6.33
2017-01-04T19:41:03.173Z,6.31
2017-01-04T19:42:18.015Z,6.28
2017-01-04T19:43:33.446Z,6.25
2017-01-04T19:44:48.204Z,6.21
2017-01-04T19:46:03.026Z,6.19
2017-01-04T19:47:18.155Z,6.16
2017-01-04T19:48:58.999Z,6.1
2017-01-04T19:50:15.149Z,6.07
2017-01-04T19:51:30.748Z,6.05
2017-01-04T19:52:46.369Z,6.01
2017-01-04T19:54:00.825Z,5.99
2017-01-04T19:55:17.152Z,5.96
2017-01-04T19:56:32.476Z,5.92
2017-01-04T19:57:47.888Z,5.88
2017-01-04T19:59:03.866Z,5.84
2017-01-04T20:00:18.218Z,5.82
2017-01-04T20:01:32.919Z,5.79
2017-01-04T20:02:48.294Z,5.76
2017-01-04T20:04:03.530Z,5.73
2017-01-04T20:05:21.126Z,5.69
2017-01-04T20:06:35.285Z,5.68
2017-01-04T20:07:50.894Z,5.67
2017-01-04T20:09:06.997Z,5.63
2017-01-04T20:10:21.928Z,5.6
2017-01-04T20:11:37.211Z,5.57
2017-01-04T20:12:51.445Z,5.51
2017-01-04T20:14:06.995Z,5.48
2017-01-04T20:15:21.406Z,5.44
2017-01-04T20:16:36.684Z,5.41
2017-01-04T20:17:50.843Z,5.37
2017-01-04T20:19:06.135Z,5.35
2017-01-04T20:20:21.117Z,5.36
2017-01-04T20:21:36.461Z,5.38
2017-01-04T20:22:51.847Z,5.4
2017-01-04T20:24:06.250Z,5.42
2017-01-04T20:25:21.182Z,5.45
2017-01-04T20:26:37.640Z,5.43
2017-01-04T20:27:51.774Z,5.42
2017-01-04T20:29:07.006Z,5.42
2017-01-04T20:30:21.625Z,5.42
2017-01-04T20:31:36.019Z,5.38
2017-01-04T20:32:53.064Z,5.38
2017-01-04T20:34:09.458Z,5.35
2017-01-04T20:35:24.134Z,5.35
2017-01-04T20:36:40.399Z,5.35
2017-01-04T20:37:56.335Z,5.35
2017-01-04T20:39:10.823Z,5.36
2017-01-04T20:40:25.732Z,5.36
2017-01-04T20:41:39.932Z,5.38
2017-01-04T20:42:54.234Z,5.39
2017-01-04T20:44:08.914Z,5.4
2017-01-04T20:45:23.514Z,5.43
2017-01-04T20:46:53.634Z,5.44
2017-01-04T20:48:08.407Z,5.46
2017-01-04T20:49:23.679Z,5.44
2017-01-04T20:50:38.760Z,5.47
2017-01-04T20:51:53.063Z,5.47
2017-01-04T20:53:08.166Z,5.49
2017-01-04T20:54:23.340Z,5.49
2017-01-04T20:55:37.641Z,5.48
2017-01-04T20:56:53.255Z,5.48
2017-01-04T20:58:07.461Z,5.47
2017-01-04T20:59:21.952Z,5.48
2017-01-04T21:00:36.440Z,5.47
2017-01-04T21:01:52.582Z,5.46
2017-01-04T21:03:06.840Z,5.47
2017-01-04T21:04:21.606Z,5.48
2017-01-04T21:05:36.429Z,5.49
2017-01-04T21:06:51.630Z,5.5
2017-01-04T21:08:05.842Z,5.52
2017-01-04T21:09:20.781Z,5.54
2017-01-04T21:10:36.170Z,5.56
2017-01-04T21:11:51.912Z,5.58
2017-01-04T21:13:06.842Z,5.6
2017-01-04T21:14:21.655Z,5.64
2017-01-04T21:15:37.544Z,5.65
2017-01-04T21:16:51.723Z,5.7
2017-01-04T21:18:06.097Z,5.71
2017-01-04T21:19:20.675Z,5.75
2017-01-04T21:20:35.451Z,5.79
2017-01-04T21:21:51.044Z,5.81
2017-01-04T21:23:07.043Z,5.83
2017-01-04T21:24:22.339Z,5.83
2017-01-04T21:25:37.955Z,5.81
2017-01-04T21:26:56.163Z,5.8
2017-01-04T21:28:10.512Z,5.79
2017-01-04T21:29:26.565Z,5.82
2017-01-04T21:30:40.774Z,5.81
2017-01-04T21:31:59.469Z,5.68
2017-01-04T21:33:13.635Z,5.55
2017-01-04T21:34:28.456Z,5.37
2017-01-04T21:35:43.255Z,5.25
2017-01-04T21:36:58.089Z,5.13
2017-01-04T21:38:12.519Z,5.04
2017-01-04T21:39:26.823Z,4.98
2017-01-04T21:40:41.023Z,4.95
2017-01-04T21:41:55.428Z,4.89
2017-01-04T21:43:10.039Z,4.85
2017-01-04T21:44:25.210Z,4.78
2017-01-04T21:45:40.125Z,4.71
2017-01-04T21:46:55.677Z,4.68
2017-01-04T21:48:10.452Z,4.66
2017-01-04T21:49:24.873Z,4.66
2017-01-04T21:50:42.243Z,4.68
2017-01-04T21:51:56.938Z,4.7
2017-01-04T21:53:11.789Z,4.73
2017-01-04T21:54:26.670Z,4.76
2017-01-04T21:55:40.962Z,4.77
2017-01-04T21:56:57.254Z,4.77
2017-01-04T21:58:11.365Z,4.8
2017-01-04T21:59:25.714Z,4.81
2017-01-04T22:00:40.461Z,4.84
2017-01-04T22:01:55.247Z,4.85
2017-01-04T22:03:10.468Z,4.87
2017-01-04T22:04:24.765Z,4.86
2017-01-04T22:05:41.053Z,4.86
2017-01-04T22:06:56.059Z,4.86
2017-01-04T22:08:10.615Z,4.85
2017-01-04T22:09:25.237Z,4.83
2017-01-04T22:10:39.411Z,4.82
2017-01-04T22:11:53.806Z,4.82
2017-01-04T22:13:08.367Z,4.8
2017-01-04T22:14:23.376Z,4.8
2017-01-04T22:15:38.555Z,4.78
2017-01-04T22:16:53.241Z,4.78
2017-01-04T22:18:08.890Z,4.77
2017-01-04T22:19:24.199Z,4.76
2017-01-04T22:20:39.751Z,4.73
2017-01-04T22:21:56.076Z,4.73
2017-01-04T22:23:10.223Z,4.76
2017-01-04T22:24:25.106Z,4.75
2017-01-04T22:25:39.812Z,4.76
2017-01-04T22:26:54.197Z,4.75
2017-01-04T22:28:09.315Z,4.74
2017-01-04T22:29:24.317Z,4.72
2017-01-04T22:30:38.492Z,4.68
2017-01-04T22:31:53.093Z,4.66
2017-01-04T22:33:08.850Z,4.63
2017-01-04T22:34:23.278Z,4.58
2017-01-04T22:35:38.182Z,4.54
2017-01-04T22:36:54.043Z,4.49
2017-01-04T22:38:11.331Z,4.47
2017-01-04T22:39:26.220Z,4.46
2017-01-04T22:40:41.386Z,4.46
2017-01-04T22:41:56.543Z,4.43
2017-01-04T22:43:11.300Z,4.43
2017-01-04T22:44:26.329Z,4.4
2017-01-04T22:45:41.080Z,4.4
2017-01-04T22:46:55.600Z,4.36
2017-01-04T22:48:24.023Z,4.36
2017-01-04T22:49:38.860Z,4.34
2017-01-04T22:50:53.066Z,4.33
2017-01-04T22:52:08.251Z,4.33
2017-01-04T22:53:22.965Z,4.33
2017-01-04T22:54:37.896Z,4.36
2017-01-04T22:55:54.232Z,4.41
2017-01-04T22:57:09.329Z,4.43
2017-01-04T22:58:23.408Z,4.45
2017-01-04T22:59:38.649Z,4.48
2017-01-04T23:00:55.048Z,4.5
2017-01-04T23:02:09.496Z,4.51
2017-01-04T23:03:24.247Z,4.55
2017-01-04T23:04:38.870Z,4.56
2017-01-04T23:05:53.404Z,4.57
2017-01-04T23:07:08.721Z,4.59
2017-01-04T23:08:25.556Z,4.62
2017-01-04T23:09:40.147Z,4.62
2017-01-04T23:10:54.536Z,4.63
2017-01-04T23:12:09.715Z,4.63
2017-01-04T23:13:24.044Z,4.65
2017-01-04T23:14:38.616Z,4.68
2017-01-04T23:15:52.898Z,4.7
2017-01-04T23:17:07.901Z,4.69
2017-01-04T23:18:22.537Z,4.71
2017-01-04T23:19:36.671Z,4.71
2017-01-04T23:20:51.745Z,4.72
2017-01-04T23:22:05.997Z,4.75
2017-01-04T23:23:20.386Z,4.77
2017-01-04T23:24:34.962Z,4.78
2017-01-04T23:25:50.298Z,4.8
2017-01-04T23:27:06.056Z,4.83
2017-01-04T23:28:20.708Z,4.84
2017-01-04T23:29:34.972Z,4.84
2017-01-04T23:30:49.116Z,4.84
2017-01-04T23:32:04.710Z,4.83
2017-01-04T23:33:19.152Z,4.83
2017-01-04T23:34:33.456Z,4.84
2017-01-04T23:35:48.040Z,4.85
2017-01-04T23:37:02.644Z,4.85
2017-01-04T23:38:16.753Z,4.86
2017-01-04T23:39:31.332Z,4.86
2017-01-04T23:40:46.435Z,4.87
2017-01-04T23:42:01.044Z,4.86
2017-01-04T23:43:16.491Z,4.89
2017-01-04T23:44:30.823Z,4.86
2017-01-04T23:45:45.957Z,4.86
2017-01-04T23:47:00.246Z,4.86
2017-01-04T23:48:15.502Z,4.83
2017-01-04T23:49:31.245Z,4.82
2017-01-04T23:50:46.623Z,4.81
2017-01-04T23:52:28.612Z,4.83
2017-01-04T23:53:44.331Z,4.83
2017-01-04T23:54:58.930Z,4.8
2017-01-04T23:56:13.211Z,4.81
2017-01-04T23:59:13.051Z,4.78
